Time;durP1;ratioP1;P1;durP2;ratioP2;P2;SDS_P1;SDS_P2;PMS_P1;PMS_P2;Temp;Humidity;BMP_temperature;BMP_pressure;BME280_temperature;BME280_humidity;BME280_pressure;Samples;Min_cycle;Max_cycle;Signal;HPM_P1;HPM_P2
2023/12/28 00:00:42;;;;;;;2.85;0.95;;;32.40;95.70;;;;;;4991802;28;20190;-70
2023/12/28 00:03:09;;;;;;;6.57;1.10;;;32.00;95.30;;;;;;4991601;28;20210;-70
2023/12/28 00:05:37;;;;;;;2.13;0.90;;;31.60;99.90;;;;;;4991635;28;20265;-71
2023/12/28 00:08:05;;;;;;;2.20;0.68;;;31.30;99.40;;;;;;4991925;28;20613;-71
2023/12/28 00:10:32;;;;;;;1.23;0.73;;;31.30;99.90;;;;;;4991405;28;20574;-73
2023/12/28 00:13:00;;;;;;;5.55;1.23;;;31.50;96.10;;;;;;4991824;28;20182;-70
2023/12/28 00:15:28;;;;;;;4.93;1.02;;;31.60;98.90;;;;;;4991579;28;20631;-73
2023/12/28 00:17:55;;;;;;;2.03;0.82;;;31.80;97.70;;;;;;4991291;28;20593;-70
2023/12/28 00:20:23;;;;;;;1.25;0.80;;;32.00;97.90;;;;;;4992049;28;20221;-71
2023/12/28 00:22:51;;;;;;;3.00;0.88;;;32.90;97.90;;;;;;4991962;28;20210;-74
2023/12/28 00:25:18;;;;;;;2.40;1.00;;;33.30;91.90;;;;;;4991181;28;20313;-72
2023/12/28 00:27:46;;;;;;;1.33;0.80;;;33.80;78.30;;;;;;4991581;28;20589;-70
2023/12/28 00:30:16;;;;;;;3.83;0.82;;;33.70;73.40;;;;;;4991700;28;20240;-70
2023/12/28 00:32:47;;;;;;;9.05;1.48;;;33.40;85.80;;;;;;4991084;28;20194;-70
2023/12/28 00:38:41;;;;;;;4.13;1.05;;;33.70;84.80;;;;;;4911636;29;20231;-75
2023/12/28 00:41:09;;;;;;;3.13;0.95;;;33.60;79.10;;;;;;4912216;29;20541;-74
2023/12/28 00:43:36;;;;;;;2.17;1.00;;;33.80;76.60;;;;;;4977933;28;20567;-69
2023/12/28 00:49:26;;;;;;;3.58;1.00;;;33.50;80.70;;;;;;4990788;28;20314;-70
2023/12/28 00:51:54;;;;;;;4.03;1.00;;;34.10;85.10;;;;;;4991468;28;20217;-69
2023/12/28 00:54:21;;;;;;;9.90;1.05;;;34.30;63.00;;;;;;4991385;28;20225;-70
2023/12/28 00:56:49;;;;;;;2.30;0.80;;;34.30;65.90;;;;;;4990956;28;20269;-71
2023/12/28 00:59:17;;;;;;;1.95;0.75;;;34.30;63.00;;;;;;4991447;28;20186;-69
2023/12/28 01:01:44;;;;;;;3.15;0.70;;;33.90;60.80;;;;;;4991628;28;20193;-69
2023/12/28 01:04:12;;;;;;;1.50;1.10;;;33.80;58.60;;;;;;4990829;28;20186;-70
2023/12/28 01:06:40;;;;;;;1.63;1.05;;;33.60;65.60;;;;;;4993107;28;20590;-72
2023/12/28 01:12:29;;;;;;;4.88;1.20;;;33.70;60.40;;;;;;4994754;28;20244;-72
2023/12/28 01:14:57;;;;;;;2.25;1.10;;;34.40;62.50;;;;;;4995085;28;20186;-72
2023/12/28 01:17:28;;;;;;;1.65;0.80;;;34.20;61.30;;;;;;4994956;28;20183;-72
2023/12/28 01:19:55;;;;;;;3.92;0.85;;;33.40;56.00;;;;;;4994909;28;20281;-72
2023/12/28 01:22:23;;;;;;;2.40;0.93;;;33.10;56.50;;;;;;4995188;28;20553;-71
2023/12/28 01:24:51;;;;;;;1.77;0.80;;;33.10;57.60;;;;;;4994541;28;20661;-71
2023/12/28 01:27:19;;;;;;;3.25;0.80;;;32.90;64.70;;;;;;4995176;28;20262;-71
2023/12/28 01:29:47;;;;;;;3.83;1.00;;;33.30;61.80;;;;;;4995150;28;20597;-70
2023/12/28 01:32:15;;;;;;;6.60;1.00;;;33.70;55.90;;;;;;4976889;28;20634;-71
2023/12/28 01:34:42;;;;;;;1.88;0.82;;;34.30;57.00;;;;;;4994918;28;20625;-71
2023/12/28 01:37:10;;;;;;;1.52;0.70;;;35.00;53.50;;;;;;4995052;28;20179;-72
2023/12/28 01:39:39;;;;;;;2.58;1.00;;;35.10;47.90;;;;;;4976978;28;20818;-72
2023/12/28 01:42:06;;;;;;;1.00;0.60;;;35.10;47.60;;;;;;4994764;28;20210;-72
2023/12/28 01:44:34;;;;;;;4.03;0.82;;;35.50;45.50;;;;;;4994556;28;20628;-69
2023/12/28 01:47:02;;;;;;;7.88;1.10;;;35.30;43.90;;;;;;4994087;28;20190;-74
2023/12/28 01:49:30;;;;;;;2.53;0.70;;;35.30;41.20;;;;;;4994554;28;20250;-70
2023/12/28 01:51:59;;;;;;;3.95;0.93;;;35.20;43.80;;;;;;4994216;28;20189;-69
2023/12/28 01:54:27;;;;;;;1.83;0.82;;;34.80;44.40;;;;;;4994062;28;20174;-72
2023/12/28 01:56:55;;;;;;;6.63;0.80;;;35.10;39.20;;;;;;4994458;28;20234;-71
2023/12/28 01:59:23;;;;;;;0.93;0.55;;;35.10;39.70;;;;;;4994257;28;20186;-71
2023/12/28 02:01:50;;;;;;;3.65;1.33;;;33.60;39.50;;;;;;4994015;28;20175;-70
2023/12/28 02:04:25;;;;;;;3.17;0.85;;;33.10;45.00;;;;;;4976826;28;20622;-71
2023/12/28 02:06:59;;;;;;;7.05;0.77;;;33.50;51.90;;;;;;4975078;28;20641;-70
2023/12/28 02:09:27;;;;;;;3.13;0.85;;;33.60;44.40;;;;;;4974459;28;20261;-70
2023/12/28 02:11:55;;;;;;;6.70;0.88;;;33.20;49.50;;;;;;4974236;28;20179;-70
2023/12/28 02:14:23;;;;;;;2.33;0.90;;;34.00;49.90;;;;;;4974901;28;20179;-73
2023/12/28 02:17:18;;;;;;;2.65;0.80;;;34.60;45.50;;;;;;4991183;28;20269;-70
2023/12/28 02:19:53;;;;;;;6.30;0.90;;;35.20;38.10;;;;;;4993668;28;20194;-71
2023/12/28 02:22:23;;;;;;;1.65;1.10;;;35.10;34.20;;;;;;4994433;28;20240;-70
2023/12/28 02:25:03;;;;;;;2.38;0.82;;;34.40;39.10;;;;;;4993674;28;20253;-70
2023/12/28 02:27:31;;;;;;;0.65;0.60;;;33.80;42.40;;;;;;4974578;28;20187;-70
2023/12/28 02:29:59;;;;;;;0.88;0.70;;;33.40;42.00;;;;;;4974385;28;20262;-71
2023/12/28 02:32:58;;;;;;;5.60;0.90;;;33.40;43.20;;;;;;4973998;28;20534;-71
2023/12/28 02:35:33;;;;;;;2.38;0.80;;;33.30;44.20;;;;;;4953916;28;20195;-70
2023/12/28 02:38:24;;;;;;;7.60;0.98;;;33.60;41.10;;;;;;4993674;28;20285;-70
2023/12/28 02:40:52;;;;;;;2.03;0.82;;;33.30;42.00;;;;;;4994027;28;20189;-69
2023/12/28 02:43:20;;;;;;;1.70;0.88;;;33.40;40.70;;;;;;4993540;28;20171;-70
2023/12/28 02:45:47;;;;;;;3.58;0.82;;;33.40;44.50;;;;;;4993115;28;20183;-72
2023/12/28 02:48:15;;;;;;;2.78;1.00;;;33.50;40.10;;;;;;4993799;28;20210;-70
2023/12/28 02:50:43;;;;;;;2.33;0.80;;;34.50;41.10;;;;;;4975934;28;20746;-72
2023/12/28 02:53:11;;;;;;;1.00;0.70;;;35.10;40.30;;;;;;4992918;28;20186;-70
2023/12/28 02:55:38;;;;;;;2.10;1.10;;;35.60;36.10;;;;;;4993379;28;20622;-71
2023/12/28 02:58:06;;;;;;;2.20;1.17;;;36.00;34.00;;;;;;4993393;28;20305;-68
2023/12/28 03:00:34;;;;;;;3.35;1.17;;;36.40;36.30;;;;;;4975509;28;20675;-70
2023/12/28 03:03:03;;;;;;;3.70;1.27;;;35.90;28.90;;;;;;4993516;28;20185;-70
2023/12/28 03:05:31;;;;;;;1.83;1.10;;;35.80;30.80;;;;;;4993301;28;20225;-70
2023/12/28 03:07:58;;;;;;;3.35;0.70;;;36.20;30.00;;;;;;4992638;28;20186;-69
2023/12/28 03:10:26;;;;;;;4.13;1.00;;;35.70;27.60;;;;;;4973605;28;20207;-70
2023/12/28 03:12:54;;;;;;;2.53;1.00;;;35.40;30.20;;;;;;4973691;28;20614;-71
2023/12/28 03:15:21;;;;;;;2.65;0.88;;;35.60;28.00;;;;;;4989180;28;20265;-72
2023/12/28 03:17:49;;;;;;;2.65;0.70;;;35.90;27.90;;;;;;4993181;28;20263;-70
2023/12/28 03:20:17;;;;;;;1.13;0.80;;;35.70;27.80;;;;;;4992709;28;20206;-69
2023/12/28 03:22:44;;;;;;;3.28;1.05;;;35.80;28.70;;;;;;4974999;28;20183;-71
2023/12/28 03:25:12;;;;;;;1.33;0.82;;;36.20;39.10;;;;;;4975420;28;20182;-71
2023/12/28 03:27:40;;;;;;;3.63;1.10;;;35.90;53.60;;;;;;4992916;28;20178;-70
2023/12/28 03:30:08;;;;;;;3.40;1.02;;;35.40;58.00;;;;;;4992226;28;20325;-71
2023/12/28 03:32:36;;;;;;;1.50;0.93;;;34.80;58.00;;;;;;4992670;28;20636;-70
2023/12/28 03:35:06;;;;;;;6.55;1.10;;;34.50;74.80;;;;;;4992561;28;20293;-70
2023/12/28 03:37:34;;;;;;;2.28;0.90;;;33.60;81.60;;;;;;4992027;28;20202;-69
2023/12/28 03:40:02;;;;;;;5.88;0.90;;;32.50;87.90;;;;;;4992650;28;20179;-70
2023/12/28 03:42:30;;;;;;;1.88;0.93;;;31.70;95.00;;;;;;4992392;28;20624;-70
2023/12/28 03:44:58;;;;;;;2.25;0.77;;;32.20;99.90;;;;;;4991860;28;20186;-69
2023/12/28 03:47:25;;;;;;;3.60;0.93;;;32.70;98.70;;;;;;4992602;28;20659;-69
2023/12/28 03:49:56;;;;;;;3.40;1.13;;;33.00;95.00;;;;;;4992078;28;20246;-70
2023/12/28 03:52:30;;;;;;;6.13;1.10;;;32.90;96.90;;;;;;4991361;28;20175;-72
2023/12/28 03:54:57;;;;;;;2.38;1.30;;;32.40;97.70;;;;;;4992524;28;20185;-69
2023/12/28 03:57:26;;;;;;;3.72;1.27;;;31.80;99.90;;;;;;4992248;28;20258;-70
2023/12/28 03:59:54;;;;;;;10.80;0.85;;;31.30;99.90;;;;;;4992192;28;20214;-69
2023/12/28 04:02:24;;;;;;;10.45;1.73;;;30.70;99.90;;;;;;4991928;28;20186;-70
2023/12/28 04:04:52;;;;;;;2.13;1.02;;;30.50;99.90;;;;;;4991706;28;20190;-71
2023/12/28 04:07:20;;;;;;;6.30;1.02;;;30.90;99.90;;;;;;4991795;28;20183;-71
2023/12/28 04:09:48;;;;;;;5.47;1.23;;;30.70;99.90;;;;;;4992112;28;20209;-71
2023/12/28 04:12:15;;;;;;;2.85;0.88;;;31.00;99.90;;;;;;4992119;28;20583;-72
2023/12/28 04:14:43;;;;;;;3.35;0.98;;;30.70;99.90;;;;;;4991498;28;20186;-72
2023/12/28 04:17:11;;;;;;;5.40;1.00;;;30.40;99.90;;;;;;4991927;28;20175;-71
2023/12/28 04:19:38;;;;;;;1.60;0.70;;;30.50;99.90;;;;;;4974429;28;20592;-71
2023/12/28 04:22:06;;;;;;;3.00;0.80;;;30.70;99.90;;;;;;4993457;28;20222;-70
2023/12/28 04:24:34;;;;;;;2.87;0.87;;;31.30;99.90;;;;;;4993120;28;20182;-72
2023/12/28 04:27:01;;;;;;;2.58;1.40;;;32.00;99.90;;;;;;4993205;28;20655;-71
2023/12/28 04:29:29;;;;;;;1.80;0.80;;;31.90;99.90;;;;;;4993219;28;20574;-71
2023/12/28 04:31:57;;;;;;;4.07;1.00;;;31.80;99.90;;;;;;4993264;28;20175;-71
2023/12/28 04:34:24;;;;;;;4.28;0.98;;;31.60;98.60;;;;;;4992960;28;20198;-70
2023/12/28 04:36:52;;;;;;;0.90;0.85;;;31.20;99.90;;;;;;4975735;28;20190;-70
2023/12/28 04:39:20;;;;;;;3.97;0.75;;;31.40;99.90;;;;;;4993078;28;20202;-71
2023/12/28 04:41:47;;;;;;;3.00;0.90;;;31.60;98.60;;;;;;4992812;28;20209;-71
2023/12/28 04:44:15;;;;;;;1.00;0.90;;;31.50;99.90;;;;;;4992727;28;20179;-70
2023/12/28 04:46:44;;;;;;;2.23;0.73;;;30.70;99.90;;;;;;4993439;28;20179;-71
2023/12/28 04:49:12;;;;;;;3.03;0.97;;;31.10;99.90;;;;;;4992851;28;20245;-71
2023/12/28 04:51:49;;;;;;;2.23;1.30;;;30.60;99.90;;;;;;4972743;28;20195;-71
2023/12/28 04:54:16;;;;;;;1.85;0.73;;;30.80;99.90;;;;;;4979050;28;20594;-71
2023/12/28 04:59:48;;;;;;;2.72;0.65;;;31.80;99.90;;;;;;4989760;28;20249;-70
2023/12/28 05:02:16;;;;;;;1.65;0.93;;;32.00;99.90;;;;;;4991514;28;20183;-71
2023/12/28 05:04:44;;;;;;;5.38;0.80;;;32.20;99.90;;;;;;4991293;28;20183;-73
2023/12/28 05:07:11;;;;;;;3.30;1.08;;;32.30;99.10;;;;;;4991488;28;20179;-70
2023/12/28 05:09:39;;;;;;;5.15;0.82;;;31.80;99.90;;;;;;4992009;28;20211;-73
2023/12/28 05:12:07;;;;;;;1.75;0.65;;;31.80;99.90;;;;;;4975072;28;20185;-72
2023/12/28 05:14:35;;;;;;;3.15;1.00;;;31.60;99.90;;;;;;4992843;28;20210;-73
2023/12/28 05:17:03;;;;;;;4.00;0.70;;;31.70;99.90;;;;;;4992813;28;20605;-74
2023/12/28 05:19:31;;;;;;;4.20;0.70;;;31.70;99.90;;;;;;4991879;28;20281;-73
2023/12/28 05:22:02;;;;;;;2.30;0.82;;;31.60;99.90;;;;;;4991730;28;20179;-73
2023/12/28 05:24:30;;;;;;;4.45;0.95;;;31.70;99.90;;;;;;4974040;28;20194;-73
2023/12/28 05:26:58;;;;;;;1.67;0.75;;;32.00;99.90;;;;;;4991706;28;20186;-70
2023/12/28 05:29:26;;;;;;;2.65;0.82;;;32.10;99.20;;;;;;4990846;28;20203;-74
2023/12/28 05:31:53;;;;;;;4.65;1.65;;;31.50;99.90;;;;;;4991773;28;20556;-72
2023/12/28 05:34:21;;;;;;;6.10;1.60;;;30.90;99.90;;;;;;4991192;28;20175;-71
2023/12/28 05:36:48;;;;;;;2.08;0.80;;;31.10;99.90;;;;;;4991031;28;20220;-72
2023/12/28 05:39:16;;;;;;;2.95;1.20;;;31.30;99.90;;;;;;4990994;28;20226;-73
2023/12/28 05:41:47;;;;;;;4.18;1.08;;;31.30;99.90;;;;;;4991027;28;20198;-73
2023/12/28 05:44:15;;;;;;;4.68;1.05;;;31.60;99.90;;;;;;4990819;28;20187;-73
2023/12/28 05:46:43;;;;;;;4.38;1.05;;;31.20;99.70;;;;;;4991363;28;20182;-73
2023/12/28 05:49:10;;;;;;;1.83;0.77;;;31.00;99.90;;;;;;4990878;28;20206;-73
2023/12/28 05:51:41;;;;;;;3.28;0.80;;;31.20;99.90;;;;;;4990981;28;20183;-73
2023/12/28 05:54:09;;;;;;;3.97;0.80;;;31.20;99.90;;;;;;4993102;28;20206;-73
2023/12/28 05:56:37;;;;;;;2.55;0.80;;;31.10;99.90;;;;;;4994479;28;20175;-73
2023/12/28 05:59:04;;;;;;;3.97;0.90;;;31.30;99.90;;;;;;4993736;28;20186;-72
2023/12/28 06:01:32;;;;;;;3.73;0.80;;;31.30;99.90;;;;;;4994985;28;20218;-71
2023/12/28 06:04:00;;;;;;;4.32;0.60;;;31.00;99.90;;;;;;4994875;28;20179;-71
2023/12/28 06:06:28;;;;;;;3.22;0.70;;;31.10;99.90;;;;;;4994145;28;20190;-71
2023/12/28 06:08:56;;;;;;;2.17;0.80;;;31.00;99.90;;;;;;4994162;28;20233;-72
2023/12/28 06:11:23;;;;;;;3.88;0.75;;;30.80;99.90;;;;;;4994344;28;20187;-71
2023/12/28 06:13:51;;;;;;;1.60;0.80;;;30.50;99.90;;;;;;4993935;28;20541;-70
2023/12/28 06:16:18;;;;;;;4.00;0.70;;;30.40;99.90;;;;;;4994332;28;20197;-72
2023/12/28 06:18:46;;;;;;;2.03;0.60;;;30.00;99.90;;;;;;4978452;28;20341;-71
2023/12/28 06:21:14;;;;;;;0.80;0.57;;;30.10;99.90;;;;;;4994031;28;20581;-70
2023/12/28 06:23:42;;;;;;;2.33;0.70;;;30.30;99.90;;;;;;4994398;28;20358;-73
2023/12/28 06:26:10;;;;;;;1.87;0.67;;;30.20;99.90;;;;;;4994399;28;20183;-73
2023/12/28 06:28:37;;;;;;;3.37;0.80;;;29.90;99.90;;;;;;4994059;28;20289;-72
2023/12/28 06:31:05;;;;;;;2.80;0.97;;;29.50;99.90;;;;;;4995226;28;20198;-72
2023/12/28 06:33:33;;;;;;;3.13;0.77;;;29.40;99.90;;;;;;4993778;28;20270;-71
2023/12/28 06:36:06;;;;;;;2.30;0.80;;;29.30;99.90;;;;;;4993813;28;20183;-70
2023/12/28 06:38:34;;;;;;;5.00;0.80;;;29.40;99.90;;;;;;4993599;28;20321;-71
2023/12/28 06:41:02;;;;;;;2.97;0.80;;;29.50;99.90;;;;;;4993916;28;20678;-71
2023/12/28 06:43:29;;;;;;;1.47;0.70;;;29.70;99.90;;;;;;4993351;28;20274;-71
2023/12/28 06:45:57;;;;;;;3.90;1.27;;;29.70;99.90;;;;;;4993735;28;20286;-71
2023/12/28 06:48:26;;;;;;;4.23;1.00;;;29.30;99.90;;;;;;4993651;28;20658;-72
2023/12/28 06:50:54;;;;;;;0.47;0.47;;;29.30;99.90;;;;;;4993061;28;20568;-72
2023/12/28 06:53:21;;;;;;;1.17;0.60;;;29.50;99.90;;;;;;4993529;28;20283;-70
2023/12/28 06:55:49;;;;;;;3.70;0.90;;;29.50;99.90;;;;;;4976170;28;20285;-71
2023/12/28 06:58:17;;;;;;;3.93;0.87;;;29.20;99.90;;;;;;4992883;28;20255;-71
2023/12/28 07:00:45;;;;;;;4.53;0.73;;;29.30;99.90;;;;;;4993446;28;20732;-71
2023/12/28 07:03:13;;;;;;;3.50;0.60;;;29.40;99.90;;;;;;4993421;28;20198;-71
2023/12/28 07:05:40;;;;;;;4.13;0.90;;;29.30;99.90;;;;;;4992423;28;20185;-71
2023/12/28 07:08:08;;;;;;;0.87;0.50;;;29.30;99.90;;;;;;4993199;28;20182;-72
2023/12/28 07:10:36;;;;;;;3.60;0.57;;;29.20;99.90;;;;;;4993243;28;20313;-71
2023/12/28 07:13:04;;;;;;;0.93;0.60;;;29.10;99.90;;;;;;4992656;28;20186;-69
2023/12/28 07:15:31;;;;;;;4.30;0.90;;;28.80;99.90;;;;;;4993352;28;20198;-71
2023/12/28 07:17:59;;;;;;;2.17;0.50;;;28.90;99.90;;;;;;4993113;28;20186;-70
2023/12/28 07:20:27;;;;;;;2.13;0.67;;;28.90;99.90;;;;;;4992993;28;20178;-70
2023/12/28 07:22:55;;;;;;;1.67;0.70;;;28.90;99.90;;;;;;4993469;28;20589;-72
2023/12/28 07:25:22;;;;;;;2.83;0.60;;;29.00;99.90;;;;;;4975747;28;20190;-72
2023/12/28 07:27:50;;;;;;;1.53;0.90;;;29.00;99.90;;;;;;4992626;28;20175;-72
2023/12/28 07:30:18;;;;;;;2.93;0.60;;;28.90;99.90;;;;;;4976782;28;20225;-72
2023/12/28 07:32:46;;;;;;;1.70;0.80;;;29.00;99.90;;;;;;4992940;28;20258;-72
2023/12/28 07:35:13;;;;;;;2.23;0.50;;;29.00;99.90;;;;;;4992798;28;20210;-71
2023/12/28 07:37:41;;;;;;;3.50;0.60;;;28.90;99.90;;;;;;4992957;28;20206;-71
2023/12/28 07:40:09;;;;;;;2.67;0.97;;;28.60;99.90;;;;;;4993144;28;20241;-72
2023/12/28 07:42:37;;;;;;;2.03;0.70;;;28.40;99.90;;;;;;4992637;28;20187;-73
2023/12/28 07:45:05;;;;;;;2.00;0.67;;;28.40;99.90;;;;;;4993095;28;20257;-71
2023/12/28 07:47:33;;;;;;;1.07;0.60;;;28.40;99.90;;;;;;4992865;28;20189;-71
2023/12/28 07:50:01;;;;;;;5.50;0.93;;;28.40;99.90;;;;;;4992084;28;20220;-71
2023/12/28 07:52:30;;;;;;;3.27;0.90;;;28.40;99.90;;;;;;4992626;28;20190;-72
2023/12/28 07:54:59;;;;;;;0.90;0.60;;;28.40;99.90;;;;;;4992300;28;20286;-72
2023/12/28 07:57:27;;;;;;;1.57;1.00;;;28.40;99.90;;;;;;4992072;28;20186;-73
2023/12/28 07:59:54;;;;;;;0.60;0.60;;;28.30;99.90;;;;;;4991839;28;20661;-71
2023/12/28 08:02:22;;;;;;;3.33;0.60;;;28.00;99.90;;;;;;4992607;28;20695;-72
2023/12/28 08:04:50;;;;;;;9.10;0.93;;;28.00;99.90;;;;;;4992456;28;20190;-71
2023/12/28 08:07:18;;;;;;;1.33;0.70;;;27.80;99.90;;;;;;4992449;28;20241;-71
2023/12/28 08:09:45;;;;;;;3.33;0.70;;;27.70;99.90;;;;;;4990856;28;20886;-70
2023/12/28 08:12:13;;;;;;;1.17;0.70;;;27.60;99.90;;;;;;4991791;28;20186;-71
2023/12/28 08:14:41;;;;;;;1.53;0.70;;;27.60;99.90;;;;;;4975100;28;20281;-71
2023/12/28 08:17:08;;;;;;;3.20;0.77;;;27.50;99.90;;;;;;4991595;28;20193;-71
2023/12/28 08:19:36;;;;;;;1.97;0.70;;;27.40;99.90;;;;;;4991232;28;20265;-71
2023/12/28 08:22:04;;;;;;;1.40;0.70;;;27.30;99.90;;;;;;4974682;28;20193;-70
2023/12/28 08:24:33;;;;;;;0.87;0.50;;;27.10;99.90;;;;;;4991635;28;20190;-71
2023/12/28 08:27:00;;;;;;;2.50;0.70;;;27.00;99.90;;;;;;4991586;28;20190;-70
2023/12/28 08:29:28;;;;;;;1.70;0.70;;;26.90;99.90;;;;;;4991573;28;20214;-71
2023/12/28 08:31:56;;;;;;;3.30;0.70;;;26.70;99.90;;;;;;4991897;28;20674;-70
2023/12/28 08:34:23;;;;;;;4.73;0.93;;;26.50;99.90;;;;;;4991519;28;20201;-71
2023/12/28 08:36:52;;;;;;;2.10;0.83;;;26.40;99.90;;;;;;4992077;28;20183;-71
2023/12/28 08:39:20;;;;;;;4.33;0.70;;;26.30;99.90;;;;;;4991360;28;20201;-71
2023/12/28 08:41:48;;;;;;;1.77;0.70;;;26.10;99.90;;;;;;4992041;28;20236;-71
2023/12/28 08:44:16;;;;;;;1.60;0.70;;;25.90;99.90;;;;;;4993363;28;20189;-71
2023/12/28 08:46:43;;;;;;;3.67;0.80;;;25.80;99.90;;;;;;4993026;28;20183;-71
2023/12/28 08:49:11;;;;;;;2.57;0.80;;;25.70;99.90;;;;;;4993322;28;20213;-70
2023/12/28 08:51:39;;;;;;;3.27;0.80;;;25.60;99.90;;;;;;4993237;28;20182;-70
2023/12/28 08:54:06;;;;;;;1.13;0.50;;;25.50;99.90;;;;;;4992791;28;20671;-70
2023/12/28 08:56:34;;;;;;;1.90;0.60;;;25.40;99.90;;;;;;4994125;28;20171;-70
2023/12/28 08:59:03;;;;;;;1.57;0.70;;;25.30;99.90;;;;;;4975796;28;20324;-70
2023/12/28 09:01:31;;;;;;;2.70;0.80;;;25.20;99.90;;;;;;4992768;28;20226;-70
2023/12/28 09:03:59;;;;;;;1.37;0.60;;;25.10;99.90;;;;;;4993653;28;20613;-70
2023/12/28 09:06:27;;;;;;;2.33;0.50;;;25.00;99.90;;;;;;4993421;28;20186;-71
2023/12/28 09:08:56;;;;;;;2.20;0.70;;;25.00;99.90;;;;;;4993220;28;20182;-71
2023/12/28 09:11:24;;;;;;;0.57;0.53;;;24.80;99.90;;;;;;4993003;28;20182;-69
2023/12/28 09:13:51;;;;;;;1.53;0.73;;;24.80;99.90;;;;;;4992888;28;20186;-70
2023/12/28 09:16:19;;;;;;;1.37;0.60;;;24.70;99.90;;;;;;4975931;28;20604;-70
2023/12/28 09:18:47;;;;;;;0.93;0.70;;;24.60;99.90;;;;;;4993551;28;20194;-71
2023/12/28 09:21:15;;;;;;;1.13;0.57;;;24.60;99.90;;;;;;4993338;28;20269;-70
2023/12/28 09:23:43;;;;;;;0.80;0.63;;;24.60;99.90;;;;;;4973169;28;20183;-71
2023/12/28 09:26:11;;;;;;;0.77;0.50;;;24.50;99.90;;;;;;4987157;28;20222;-70
2023/12/28 09:28:38;;;;;;;2.90;0.73;;;24.50;99.90;;;;;;4997282;28;20174;-70
2023/12/28 09:31:07;;;;;;;2.13;0.83;;;24.40;99.90;;;;;;4996799;28;20222;-71
2023/12/28 09:36:56;;;;;;;2.70;0.60;;;24.30;99.90;;;;;;4986903;28;20694;-72
2023/12/28 09:39:24;;;;;;;1.47;0.50;;;24.10;99.90;;;;;;4995536;28;20175;-73
2023/12/28 09:42:05;;;;;;;1.63;0.73;;;24.20;99.90;;;;;;4995004;28;20659;-72
2023/12/28 09:44:37;;;;;;;1.13;0.70;;;24.20;99.90;;;;;;4995413;28;20953;-72
2023/12/28 09:47:06;;;;;;;1.57;0.70;;;24.10;99.90;;;;;;4995614;28;20208;-70
2023/12/28 09:49:36;;;;;;;2.17;0.80;;;24.10;99.90;;;;;;4995377;28;20560;-71
2023/12/28 09:52:03;;;;;;;1.73;0.90;;;24.10;99.90;;;;;;4995582;28;20194;-72
2023/12/28 09:54:31;;;;;;;1.30;0.80;;;24.00;99.90;;;;;;4998023;28;20198;-72
2023/12/28 09:56:59;;;;;;;1.43;0.70;;;24.10;99.90;;;;;;4995488;28;20218;-71
2023/12/28 09:59:28;;;;;;;3.23;0.60;;;24.00;99.90;;;;;;4978205;28;20624;-70
2023/12/28 10:01:57;;;;;;;0.50;0.50;;;24.00;99.90;;;;;;4996293;28;20632;-71
2023/12/28 10:04:25;;;;;;;1.13;0.70;;;23.90;99.90;;;;;;4978780;28;20182;-71
2023/12/28 10:06:53;;;;;;;2.90;0.80;;;23.80;99.90;;;;;;4997879;28;20189;-72
2023/12/28 10:09:21;;;;;;;1.10;0.67;;;23.80;99.90;;;;;;4996941;28;20577;-69
2023/12/28 10:11:49;;;;;;;2.27;0.90;;;23.80;99.90;;;;;;4996417;28;20178;-72
2023/12/28 10:14:17;;;;;;;0.70;0.60;;;23.80;99.90;;;;;;4996196;28;20585;-71
2023/12/28 10:16:45;;;;;;;1.67;0.70;;;23.80;99.90;;;;;;4978316;28;20206;-72
2023/12/28 10:19:13;;;;;;;0.63;0.57;;;23.70;99.90;;;;;;4996905;28;20175;-71
2023/12/28 10:21:44;;;;;;;1.20;0.80;;;23.60;99.90;;;;;;4995861;28;20183;-70
2023/12/28 10:24:12;;;;;;;1.20;0.73;;;23.50;99.90;;;;;;4976334;28;20661;-71
2023/12/28 10:26:40;;;;;;;3.00;0.90;;;23.40;99.90;;;;;;4960016;28;20194;-70
2023/12/28 10:29:08;;;;;;;3.17;0.90;;;23.30;99.90;;;;;;4958804;28;20215;-69
2023/12/28 10:31:36;;;;;;;4.63;1.53;;;23.30;99.90;;;;;;4995754;28;20232;-71
2023/12/28 10:34:04;;;;;;;1.13;0.80;;;23.30;99.90;;;;;;4994736;28;20636;-71
2023/12/28 10:36:32;;;;;;;2.83;0.83;;;23.20;99.90;;;;;;4994511;28;20543;-70
2023/12/28 10:39:04;;;;;;;2.50;0.97;;;23.10;99.90;;;;;;4993825;28;20747;-71
2023/12/28 10:41:35;;;;;;;2.17;1.20;;;23.00;99.90;;;;;;4980964;28;20209;-72
2023/12/28 10:44:07;;;;;;;2.73;1.10;;;23.00;99.90;;;;;;4994751;28;20210;-70
2023/12/28 10:46:41;;;;;;;0.80;0.70;;;23.00;99.90;;;;;;4994279;28;20178;-68
2023/12/28 10:49:15;;;;;;;1.67;0.93;;;22.90;99.90;;;;;;4994635;28;20213;-72
2023/12/28 10:51:45;;;;;;;5.37;1.10;;;22.80;99.90;;;;;;4993620;28;20221;-71
2023/12/28 10:54:34;;;;;;;1.60;1.00;;;22.80;99.90;;;;;;4994188;28;20191;-71
2023/12/28 10:57:32;;;;;;;1.50;1.10;;;22.70;99.90;;;;;;4976464;28;20591;-71
2023/12/28 11:00:14;;;;;;;2.50;1.20;;;22.60;99.90;;;;;;4977015;28;20226;-70
2023/12/28 11:02:51;;;;;;;2.43;1.10;;;22.60;99.90;;;;;;4993662;28;20248;-70
2023/12/28 11:05:21;;;;;;;4.40;1.30;;;22.60;99.90;;;;;;4974423;28;20187;-71
2023/12/28 11:07:56;;;;;;;2.53;1.07;;;22.60;99.90;;;;;;4957488;28;20275;-71
2023/12/28 11:10:29;;;;;;;3.20;1.60;;;22.60;99.90;;;;;;4957029;28;20643;-70
2023/12/28 11:12:59;;;;;;;3.93;1.50;;;22.50;99.90;;;;;;4991004;28;20217;-70
2023/12/28 11:15:28;;;;;;;1.57;1.40;;;22.40;99.90;;;;;;4993872;28;20179;-72
2023/12/28 11:17:56;;;;;;;4.63;1.43;;;22.40;99.90;;;;;;4994236;28;20206;-72
2023/12/28 11:20:24;;;;;;;4.83;1.47;;;22.30;99.90;;;;;;4994538;28;20174;-72
2023/12/28 11:22:52;;;;;;;3.60;1.27;;;22.20;99.90;;;;;;4994366;28;20253;-71
2023/12/28 11:25:20;;;;;;;1.83;1.30;;;22.20;99.90;;;;;;4995035;28;20273;-71
2023/12/28 11:27:48;;;;;;;1.23;0.97;;;22.20;99.90;;;;;;4992645;28;20269;-71
2023/12/28 11:30:16;;;;;;;3.20;1.10;;;22.20;99.90;;;;;;4992634;28;20280;-72
2023/12/28 11:32:49;;;;;;;2.23;1.50;;;22.30;99.90;;;;;;4993745;28;20218;-72
2023/12/28 11:35:17;;;;;;;2.70;1.20;;;22.30;99.90;;;;;;4994931;28;20179;-71
2023/12/28 11:37:51;;;;;;;2.93;1.00;;;22.20;99.90;;;;;;4992002;28;20190;-71
2023/12/28 11:40:19;;;;;;;2.77;1.40;;;22.20;99.90;;;;;;4992768;28;20198;-72
2023/12/28 11:42:54;;;;;;;2.70;1.20;;;22.10;99.90;;;;;;4991729;28;20244;-70
2023/12/28 11:45:24;;;;;;;2.73;1.30;;;22.10;99.90;;;;;;4992173;28;20609;-72
2023/12/28 11:48:05;;;;;;;2.27;1.20;;;22.00;99.90;;;;;;4991497;28;20193;-71
2023/12/28 11:50:33;;;;;;;3.07;1.33;;;22.00;99.90;;;;;;4994020;28;20218;-71
2023/12/28 11:53:01;;;;;;;4.03;1.20;;;21.90;99.90;;;;;;4994013;28;20204;-71
2023/12/28 11:55:29;;;;;;;3.73;1.40;;;21.90;99.90;;;;;;4976365;28;20253;-72
2023/12/28 11:57:56;;;;;;;3.83;1.33;;;21.90;99.90;;;;;;4993227;28;20206;-71
2023/12/28 12:00:25;;;;;;;2.97;1.30;;;21.90;99.90;;;;;;4993152;28;20232;-71
2023/12/28 12:02:58;;;;;;;5.03;1.47;;;21.80;99.90;;;;;;4993981;28;20228;-72
2023/12/28 12:05:26;;;;;;;4.57;1.80;;;21.80;99.90;;;;;;4993324;28;20194;-71
2023/12/28 12:07:57;;;;;;;11.07;1.83;;;21.80;99.90;;;;;;4993828;28;20640;-71
2023/12/28 12:10:24;;;;;;;1.70;1.40;;;21.80;99.90;;;;;;4993789;28;20229;-72
2023/12/28 12:12:55;;;;;;;2.83;1.93;;;21.80;99.90;;;;;;4993969;28;20558;-72
2023/12/28 12:15:23;;;;;;;3.33;1.60;;;21.70;99.90;;;;;;4993912;28;20182;-70
2023/12/28 12:17:51;;;;;;;2.27;1.47;;;21.80;99.90;;;;;;4975842;28;20190;-73
2023/12/28 12:20:19;;;;;;;1.93;1.30;;;21.70;99.90;;;;;;4993414;28;20245;-71
2023/12/28 12:22:49;;;;;;;2.33;1.43;;;21.70;99.90;;;;;;4993639;28;20298;-72
2023/12/28 12:25:19;;;;;;;2.80;1.67;;;21.60;99.90;;;;;;4993189;28;20194;-72
2023/12/28 12:27:47;;;;;;;4.50;1.73;;;21.60;99.90;;;;;;4993066;28;20183;-72
2023/12/28 12:30:15;;;;;;;3.50;1.37;;;21.50;99.90;;;;;;4993163;28;20226;-72
2023/12/28 12:32:43;;;;;;;2.13;1.40;;;21.50;99.90;;;;;;4979721;28;20179;-71
2023/12/28 12:35:14;;;;;;;5.13;1.40;;;21.50;99.90;;;;;;4992797;28;20201;-71
2023/12/28 12:37:42;;;;;;;3.00;1.30;;;21.50;99.90;;;;;;4992868;28;20700;-71
2023/12/28 12:40:10;;;;;;;7.33;1.67;;;21.50;99.90;;;;;;4993325;28;20189;-71
2023/12/28 12:42:42;;;;;;;3.47;1.20;;;21.60;99.90;;;;;;4993072;28;20185;-71
2023/12/28 12:45:10;;;;;;;2.23;1.27;;;21.60;99.90;;;;;;4992835;28;20183;-71
2023/12/28 12:47:39;;;;;;;2.13;1.33;;;21.60;99.90;;;;;;4993105;28;20320;-71
2023/12/28 12:50:11;;;;;;;3.23;1.37;;;21.60;99.90;;;;;;4993181;28;20214;-71
2023/12/28 12:52:39;;;;;;;4.50;1.43;;;21.60;99.90;;;;;;4993335;28;20175;-71
2023/12/28 12:55:12;;;;;;;6.17;1.67;;;21.50;99.90;;;;;;4993399;28;20178;-71
2023/12/28 12:57:43;;;;;;;2.27;1.37;;;21.50;99.90;;;;;;4992894;28;20178;-71
2023/12/28 13:00:16;;;;;;;3.30;1.60;;;21.40;99.90;;;;;;4992788;28;20240;-71
2023/12/28 13:02:45;;;;;;;3.73;1.50;;;21.40;99.90;;;;;;4995023;28;20183;-71
2023/12/28 13:05:13;;;;;;;2.17;1.27;;;21.30;99.90;;;;;;4996626;28;20182;-71
2023/12/28 13:07:41;;;;;;;4.23;1.53;;;21.30;99.90;;;;;;4997524;28;20548;-70
2023/12/28 13:10:09;;;;;;;2.90;1.30;;;21.30;99.90;;;;;;4978980;28;20225;-71